sensor_id;sensor_type;location;lat;lon;timestamp;temperature;humidity
22006;DHT22;11167;46.988;15.470;2024-02-28T00:00:05;10.60;76.30
22006;DHT22;11167;46.988;15.470;2024-02-28T00:02:06;10.60;76.20
22006;DHT22;11167;46.988;15.470;2024-02-28T00:04:08;10.60;76.20
22006;DHT22;11167;46.988;15.470;2024-02-28T00:06:09;10.60;76.20
22006;DHT22;11167;46.988;15.470;2024-02-28T00:08:10;10.60;76.20
22006;DHT22;11167;46.988;15.470;2024-02-28T00:10:11;10.60;76.20
22006;DHT22;11167;46.988;15.470;2024-02-28T00:12:13;10.60;76.30
22006;DHT22;11167;46.988;15.470;2024-02-28T00:14:16;10.50;76.10
22006;DHT22;11167;46.988;15.470;2024-02-28T00:16:17;10.60;76.10
22006;DHT22;11167;46.988;15.470;2024-02-28T00:18:18;10.60;76.20
22006;DHT22;11167;46.988;15.470;2024-02-28T00:20:20;10.60;76.20
22006;DHT22;11167;46.988;15.470;2024-02-28T00:22:21;10.50;76.30
22006;DHT22;11167;46.988;15.470;2024-02-28T00:24:22;10.50;76.20
22006;DHT22;11167;46.988;15.470;2024-02-28T00:26:23;10.50;76.10
22006;DHT22;11167;46.988;15.470;2024-02-28T00:28:24;10.50;76.20
22006;DHT22;11167;46.988;15.470;2024-02-28T00:30:26;10.50;76.10
22006;DHT22;11167;46.988;15.470;2024-02-28T00:32:29;10.50;76.10
22006;DHT22;11167;46.988;15.470;2024-02-28T00:34:30;10.50;76.10
22006;DHT22;11167;46.988;15.470;2024-02-28T00:36:31;10.50;76.20
22006;DHT22;11167;46.988;15.470;2024-02-28T00:38:32;10.50;76.30
22006;DHT22;11167;46.988;15.470;2024-02-28T00:40:34;10.50;76.20
22006;DHT22;11167;46.988;15.470;2024-02-28T00:42:35;10.50;76.10
22006;DHT22;11167;46.988;15.470;2024-02-28T00:44:37;10.50;76.20
22006;DHT22;11167;46.988;15.470;2024-02-28T00:46:39;10.50;76.10
22006;DHT22;11167;46.988;15.470;2024-02-28T00:48:41;10.50;76.10
22006;DHT22;11167;46.988;15.470;2024-02-28T00:50:42;10.40;76.10
22006;DHT22;11167;46.988;15.470;2024-02-28T00:52:43;10.40;76.10
22006;DHT22;11167;46.988;15.470;2024-02-28T00:54:45;10.40;76.10
22006;DHT22;11167;46.988;15.470;2024-02-28T00:56:46;10.50;76.10
22006;DHT22;11167;46.988;15.470;2024-02-28T00:58:47;10.40;76.10
22006;DHT22;11167;46.988;15.470;2024-02-28T01:00:48;10.40;76.10
22006;DHT22;11167;46.988;15.470;2024-02-28T01:02:50;10.40;76.10
22006;DHT22;11167;46.988;15.470;2024-02-28T01:04:51;10.40;76.10
22006;DHT22;11167;46.988;15.470;2024-02-28T01:06:52;10.40;76.10
22006;DHT22;11167;46.988;15.470;2024-02-28T01:08:53;10.40;76.10
22006;DHT22;11167;46.988;15.470;2024-02-28T01:10:54;10.40;76.10
22006;DHT22;11167;46.988;15.470;2024-02-28T01:12:56;10.40;76.10
22006;DHT22;11167;46.988;15.470;2024-02-28T01:14:57;10.40;76.10
22006;DHT22;11167;46.988;15.470;2024-02-28T01:16:59;10.40;76.20
22006;DHT22;11167;46.988;15.470;2024-02-28T01:19:00;10.40;76.10
22006;DHT22;11167;46.988;15.470;2024-02-28T01:21:02;10.40;76.30
22006;DHT22;11167;46.988;15.470;2024-02-28T01:23:03;10.40;76.10
22006;DHT22;11167;46.988;15.470;2024-02-28T01:25:05;10.40;76.80
22006;DHT22;11167;46.988;15.470;2024-02-28T01:27:07;10.30;76.00
22006;DHT22;11167;46.988;15.470;2024-02-28T01:29:08;10.30;76.00
22006;DHT22;11167;46.988;15.470;2024-02-28T01:31:10;10.40;76.10
22006;DHT22;11167;46.988;15.470;2024-02-28T01:33:13;10.30;76.00
22006;DHT22;11167;46.988;15.470;2024-02-28T01:35:14;10.30;76.00
22006;DHT22;11167;46.988;15.470;2024-02-28T01:37:15;10.30;76.00
22006;DHT22;11167;46.988;15.470;2024-02-28T01:39:17;10.30;75.50
22006;DHT22;11167;46.988;15.470;2024-02-28T01:41:18;10.30;76.10
22006;DHT22;11167;46.988;15.470;2024-02-28T01:43:20;10.30;76.00
22006;DHT22;11167;46.988;15.470;2024-02-28T01:45:21;10.30;76.00
22006;DHT22;11167;46.988;15.470;2024-02-28T01:47:22;10.30;76.00
22006;DHT22;11167;46.988;15.470;2024-02-28T01:49:24;10.30;76.00
22006;DHT22;11167;46.988;15.470;2024-02-28T01:51:27;10.30;76.00
22006;DHT22;11167;46.988;15.470;2024-02-28T01:53:29;10.30;76.00
22006;DHT22;11167;46.988;15.470;2024-02-28T01:55:30;10.30;76.00
22006;DHT22;11167;46.988;15.470;2024-02-28T01:57:32;10.20;76.30
22006;DHT22;11167;46.988;15.470;2024-02-28T01:59:34;10.30;76.00
22006;DHT22;11167;46.988;15.470;2024-02-28T02:01:37;10.20;76.00
22006;DHT22;11167;46.988;15.470;2024-02-28T02:03:38;10.30;76.00
22006;DHT22;11167;46.988;15.470;2024-02-28T02:05:41;10.20;76.00
22006;DHT22;11167;46.988;15.470;2024-02-28T02:07:43;10.20;76.10
22006;DHT22;11167;46.988;15.470;2024-02-28T02:09:44;10.20;76.00
22006;DHT22;11167;46.988;15.470;2024-02-28T02:11:45;10.20;76.00
22006;DHT22;11167;46.988;15.470;2024-02-28T02:13:51;10.20;76.00
22006;DHT22;11167;46.988;15.470;2024-02-28T02:15:52;10.20;76.00
22006;DHT22;11167;46.988;15.470;2024-02-28T02:17:53;10.20;76.00
22006;DHT22;11167;46.988;15.470;2024-02-28T02:19:55;10.20;76.00
22006;DHT22;11167;46.988;15.470;2024-02-28T02:21:58;10.20;76.00
22006;DHT22;11167;46.988;15.470;2024-02-28T02:23:59;10.10;76.00
22006;DHT22;11167;46.988;15.470;2024-02-28T02:26:01;10.10;76.00
22006;DHT22;11167;46.988;15.470;2024-02-28T02:28:03;10.10;76.00
22006;DHT22;11167;46.988;15.470;2024-02-28T02:30:05;10.10;76.00
22006;DHT22;11167;46.988;15.470;2024-02-28T02:32:09;10.10;76.00
22006;DHT22;11167;46.988;15.470;2024-02-28T02:34:10;10.10;75.90
22006;DHT22;11167;46.988;15.470;2024-02-28T02:36:11;10.10;76.00
22006;DHT22;11167;46.988;15.470;2024-02-28T02:38:12;10.10;76.00
22006;DHT22;11167;46.988;15.470;2024-02-28T02:40:14;10.10;76.00
22006;DHT22;11167;46.988;15.470;2024-02-28T02:42:15;10.10;75.90
22006;DHT22;11167;46.988;15.470;2024-02-28T02:44:18;10.10;76.00
22006;DHT22;11167;46.988;15.470;2024-02-28T02:46:20;10.00;75.90
22006;DHT22;11167;46.988;15.470;2024-02-28T02:48:21;10.00;75.90
22006;DHT22;11167;46.988;15.470;2024-02-28T02:50:23;10.00;75.90
22006;DHT22;11167;46.988;15.470;2024-02-28T02:52:24;10.00;75.90
22006;DHT22;11167;46.988;15.470;2024-02-28T02:54:25;10.00;75.90
22006;DHT22;11167;46.988;15.470;2024-02-28T02:56:26;10.00;75.90
22006;DHT22;11167;46.988;15.470;2024-02-28T02:58:27;10.00;75.90
22006;DHT22;11167;46.988;15.470;2024-02-28T03:00:29;10.00;75.90
22006;DHT22;11167;46.988;15.470;2024-02-28T03:02:32;10.00;75.90
22006;DHT22;11167;46.988;15.470;2024-02-28T03:04:33;10.00;75.90
22006;DHT22;11167;46.988;15.470;2024-02-28T03:06:36;10.00;76.00
22006;DHT22;11167;46.988;15.470;2024-02-28T03:08:38;9.90;75.80
22006;DHT22;11167;46.988;15.470;2024-02-28T03:10:39;9.90;75.90
22006;DHT22;11167;46.988;15.470;2024-02-28T03:12:40;9.90;75.80
22006;DHT22;11167;46.988;15.470;2024-02-28T03:14:42;9.90;75.80
22006;DHT22;11167;46.988;15.470;2024-02-28T03:16:43;9.90;75.80
22006;DHT22;11167;46.988;15.470;2024-02-28T03:18:45;9.90;75.80
22006;DHT22;11167;46.988;15.470;2024-02-28T03:20:47;9.90;75.90
22006;DHT22;11167;46.988;15.470;2024-02-28T03:22:48;9.90;75.80
22006;DHT22;11167;46.988;15.470;2024-02-28T03:24:49;9.90;75.90
22006;DHT22;11167;46.988;15.470;2024-02-28T03:26:50;9.90;75.90
22006;DHT22;11167;46.988;15.470;2024-02-28T03:28:51;9.90;76.00
22006;DHT22;11167;46.988;15.470;2024-02-28T03:30:53;9.80;75.80
22006;DHT22;11167;46.988;15.470;2024-02-28T03:32:54;9.80;75.90
22006;DHT22;11167;46.988;15.470;2024-02-28T03:34:55;9.80;75.90
22006;DHT22;11167;46.988;15.470;2024-02-28T03:36:57;9.80;75.90
22006;DHT22;11167;46.988;15.470;2024-02-28T03:38:58;9.80;75.80
22006;DHT22;11167;46.988;15.470;2024-02-28T03:40:59;9.80;75.90
22006;DHT22;11167;46.988;15.470;2024-02-28T03:43:00;9.80;76.70
22006;DHT22;11167;46.988;15.470;2024-02-28T03:45:02;9.80;75.90
22006;DHT22;11167;46.988;15.470;2024-02-28T03:47:04;9.80;76.00
22006;DHT22;11167;46.988;15.470;2024-02-28T03:49:05;9.80;75.90
22006;DHT22;11167;46.988;15.470;2024-02-28T03:51:06;9.70;75.80
22006;DHT22;11167;46.988;15.470;2024-02-28T03:53:07;9.70;75.80
22006;DHT22;11167;46.988;15.470;2024-02-28T03:55:09;9.70;75.80
22006;DHT22;11167;46.988;15.470;2024-02-28T03:57:10;9.70;75.80
22006;DHT22;11167;46.988;15.470;2024-02-28T03:59:12;9.70;75.80
22006;DHT22;11167;46.988;15.470;2024-02-28T04:01:13;9.70;75.80
22006;DHT22;11167;46.988;15.470;2024-02-28T04:03:15;9.70;75.80
22006;DHT22;11167;46.988;15.470;2024-02-28T04:05:16;9.70;75.80
22006;DHT22;11167;46.988;15.470;2024-02-28T04:07:19;9.70;75.80
22006;DHT22;11167;46.988;15.470;2024-02-28T04:09:20;9.70;75.90
22006;DHT22;11167;46.988;15.470;2024-02-28T04:11:21;9.70;75.80
22006;DHT22;11167;46.988;15.470;2024-02-28T04:13:24;9.60;75.80
22006;DHT22;11167;46.988;15.470;2024-02-28T04:15:25;9.60;76.70
22006;DHT22;11167;46.988;15.470;2024-02-28T04:17:27;9.60;75.80
22006;DHT22;11167;46.988;15.470;2024-02-28T04:19:28;9.60;75.80
22006;DHT22;11167;46.988;15.470;2024-02-28T04:21:29;9.60;75.80
22006;DHT22;11167;46.988;15.470;2024-02-28T04:23:30;9.60;75.80
22006;DHT22;11167;46.988;15.470;2024-02-28T04:25:32;9.60;75.80
22006;DHT22;11167;46.988;15.470;2024-02-28T04:27:34;9.60;75.80
22006;DHT22;11167;46.988;15.470;2024-02-28T04:29:35;9.60;75.80
22006;DHT22;11167;46.988;15.470;2024-02-28T04:31:38;9.50;75.90
22006;DHT22;11167;46.988;15.470;2024-02-28T04:33:40;9.60;75.80
22006;DHT22;11167;46.988;15.470;2024-02-28T04:35:41;9.60;75.80
22006;DHT22;11167;46.988;15.470;2024-02-28T04:37:42;9.50;75.90
22006;DHT22;11167;46.988;15.470;2024-02-28T04:39:44;9.50;75.80
22006;DHT22;11167;46.988;15.470;2024-02-28T04:41:45;9.50;75.90
22006;DHT22;11167;46.988;15.470;2024-02-28T04:43:47;9.50;75.80
22006;DHT22;11167;46.988;15.470;2024-02-28T04:45:48;9.50;75.90
22006;DHT22;11167;46.988;15.470;2024-02-28T04:47:50;9.50;75.90
22006;DHT22;11167;46.988;15.470;2024-02-28T04:49:53;9.50;75.90
22006;DHT22;11167;46.988;15.470;2024-02-28T04:51:54;9.50;75.90
22006;DHT22;11167;46.988;15.470;2024-02-28T04:53:55;9.50;75.90
22006;DHT22;11167;46.988;15.470;2024-02-28T04:55:56;9.50;75.90
22006;DHT22;11167;46.988;15.470;2024-02-28T04:57:58;9.40;75.80
22006;DHT22;11167;46.988;15.470;2024-02-28T04:59:59;9.40;75.90
22006;DHT22;11167;46.988;15.470;2024-02-28T05:02:00;9.40;75.90
22006;DHT22;11167;46.988;15.470;2024-02-28T05:04:01;9.40;75.80
22006;DHT22;11167;46.988;15.470;2024-02-28T05:06:03;9.40;75.90
22006;DHT22;11167;46.988;15.470;2024-02-28T05:08:05;9.40;75.90
22006;DHT22;11167;46.988;15.470;2024-02-28T05:10:07;9.40;75.90
22006;DHT22;11167;46.988;15.470;2024-02-28T05:12:09;9.40;75.90
22006;DHT22;11167;46.988;15.470;2024-02-28T05:14:12;9.40;75.90
22006;DHT22;11167;46.988;15.470;2024-02-28T05:16:14;9.40;75.90
22006;DHT22;11167;46.988;15.470;2024-02-28T05:18:16;9.40;75.90
22006;DHT22;11167;46.988;15.470;2024-02-28T05:20:17;9.40;75.90
22006;DHT22;11167;46.988;15.470;2024-02-28T05:22:18;9.40;75.90
22006;DHT22;11167;46.988;15.470;2024-02-28T05:24:20;9.30;75.90
22006;DHT22;11167;46.988;15.470;2024-02-28T05:26:21;9.30;75.80
22006;DHT22;11167;46.988;15.470;2024-02-28T05:28:22;9.30;75.90
22006;DHT22;11167;46.988;15.470;2024-02-28T05:30:25;9.30;75.90
22006;DHT22;11167;46.988;15.470;2024-02-28T05:32:26;9.30;75.90
22006;DHT22;11167;46.988;15.470;2024-02-28T05:34:27;9.30;75.90
22006;DHT22;11167;46.988;15.470;2024-02-28T05:36:30;9.30;75.90
22006;DHT22;11167;46.988;15.470;2024-02-28T05:38:31;9.30;75.90
22006;DHT22;11167;46.988;15.470;2024-02-28T05:40:32;9.30;76.00
22006;DHT22;11167;46.988;15.470;2024-02-28T05:42:34;9.30;75.90
22006;DHT22;11167;46.988;15.470;2024-02-28T05:44:35;9.30;75.90
22006;DHT22;11167;46.988;15.470;2024-02-28T05:46:36;9.30;76.00
22006;DHT22;11167;46.988;15.470;2024-02-28T05:48:37;9.30;75.90
22006;DHT22;11167;46.988;15.470;2024-02-28T05:50:39;9.20;76.00
22006;DHT22;11167;46.988;15.470;2024-02-28T05:52:42;9.20;75.90
22006;DHT22;11167;46.988;15.470;2024-02-28T05:54:43;9.20;76.00
22006;DHT22;11167;46.988;15.470;2024-02-28T05:56:44;9.20;75.90
22006;DHT22;11167;46.988;15.470;2024-02-28T05:58:47;9.20;76.10
22006;DHT22;11167;46.988;15.470;2024-02-28T06:00:49;9.20;75.90
22006;DHT22;11167;46.988;15.470;2024-02-28T06:02:50;9.20;75.90
22006;DHT22;11167;46.988;15.470;2024-02-28T06:04:51;9.20;76.10
22006;DHT22;11167;46.988;15.470;2024-02-28T06:06:53;9.10;75.90
22006;DHT22;11167;46.988;15.470;2024-02-28T06:08:54;9.20;76.00
22006;DHT22;11167;46.988;15.470;2024-02-28T06:10:58;9.20;76.10
22006;DHT22;11167;46.988;15.470;2024-02-28T06:12:59;9.10;76.00
22006;DHT22;11167;46.988;15.470;2024-02-28T06:15:01;9.10;75.90
22006;DHT22;11167;46.988;15.470;2024-02-28T06:17:02;9.10;76.00
22006;DHT22;11167;46.988;15.470;2024-02-28T06:19:03;9.10;75.90
22006;DHT22;11167;46.988;15.470;2024-02-28T06:21:04;9.10;75.90
22006;DHT22;11167;46.988;15.470;2024-02-28T06:23:05;9.10;75.90
22006;DHT22;11167;46.988;15.470;2024-02-28T06:25:07;9.10;76.00
22006;DHT22;11167;46.988;15.470;2024-02-28T06:27:10;9.10;75.90
22006;DHT22;11167;46.988;15.470;2024-02-28T06:29:13;9.10;76.10
22006;DHT22;11167;46.988;15.470;2024-02-28T06:31:16;9.10;75.90
22006;DHT22;11167;46.988;15.470;2024-02-28T06:33:17;9.10;76.00
22006;DHT22;11167;46.988;15.470;2024-02-28T06:35:19;9.00;76.00
22006;DHT22;11167;46.988;15.470;2024-02-28T06:37:21;9.00;75.90
22006;DHT22;11167;46.988;15.470;2024-02-28T06:39:22;9.00;75.90
22006;DHT22;11167;46.988;15.470;2024-02-28T06:41:23;9.00;76.70
22006;DHT22;11167;46.988;15.470;2024-02-28T06:43:25;9.00;75.90
22006;DHT22;11167;46.988;15.470;2024-02-28T06:45:27;9.00;75.90
22006;DHT22;11167;46.988;15.470;2024-02-28T06:47:28;9.00;76.00
22006;DHT22;11167;46.988;15.470;2024-02-28T06:49:29;9.00;75.90
22006;DHT22;11167;46.988;15.470;2024-02-28T06:51:31;9.00;75.90
22006;DHT22;11167;46.988;15.470;2024-02-28T06:53:32;9.00;75.90
22006;DHT22;11167;46.988;15.470;2024-02-28T06:55:33;9.00;76.10
22006;DHT22;11167;46.988;15.470;2024-02-28T06:57:34;9.00;76.00
22006;DHT22;11167;46.988;15.470;2024-02-28T06:59:36;9.00;76.80
22006;DHT22;11167;46.988;15.470;2024-02-28T07:01:37;9.00;76.00
22006;DHT22;11167;46.988;15.470;2024-02-28T07:03:38;9.00;76.00
22006;DHT22;11167;46.988;15.470;2024-02-28T07:05:39;8.90;76.00
22006;DHT22;11167;46.988;15.470;2024-02-28T07:07:41;8.90;75.90
22006;DHT22;11167;46.988;15.470;2024-02-28T07:09:42;8.90;76.10
22006;DHT22;11167;46.988;15.470;2024-02-28T07:11:43;8.90;76.10
22006;DHT22;11167;46.988;15.470;2024-02-28T07:13:44;8.90;75.90
22006;DHT22;11167;46.988;15.470;2024-02-28T07:15:47;8.90;76.80
22006;DHT22;11167;46.988;15.470;2024-02-28T07:17:49;8.90;76.10
22006;DHT22;11167;46.988;15.470;2024-02-28T07:19:50;8.90;76.00
22006;DHT22;11167;46.988;15.470;2024-02-28T07:21:52;8.90;76.00
22006;DHT22;11167;46.988;15.470;2024-02-28T07:23:53;8.90;76.00
22006;DHT22;11167;46.988;15.470;2024-02-28T07:25:55;8.90;76.10
22006;DHT22;11167;46.988;15.470;2024-02-28T07:27:58;8.90;76.00
22006;DHT22;11167;46.988;15.470;2024-02-28T07:30:01;8.90;76.10
22006;DHT22;11167;46.988;15.470;2024-02-28T07:32:04;8.90;76.00
22006;DHT22;11167;46.988;15.470;2024-02-28T07:34:05;8.80;75.90
22006;DHT22;11167;46.988;15.470;2024-02-28T07:36:07;8.80;76.00
22006;DHT22;11167;46.988;15.470;2024-02-28T07:38:08;8.90;76.00
22006;DHT22;11167;46.988;15.470;2024-02-28T07:40:10;8.90;76.00
22006;DHT22;11167;46.988;15.470;2024-02-28T07:42:11;8.80;76.60
22006;DHT22;11167;46.988;15.470;2024-02-28T07:44:12;8.90;76.10
22006;DHT22;11167;46.988;15.470;2024-02-28T07:46:14;8.80;76.00
22006;DHT22;11167;46.988;15.470;2024-02-28T07:48:15;8.80;76.00
22006;DHT22;11167;46.988;15.470;2024-02-28T07:50:18;8.80;76.00
22006;DHT22;11167;46.988;15.470;2024-02-28T07:52:20;8.80;76.10
22006;DHT22;11167;46.988;15.470;2024-02-28T07:54:21;8.80;76.10
22006;DHT22;11167;46.988;15.470;2024-02-28T07:56:22;8.80;76.10
22006;DHT22;11167;46.988;15.470;2024-02-28T07:58:23;8.80;76.10
22006;DHT22;11167;46.988;15.470;2024-02-28T08:00:25;8.80;76.10
22006;DHT22;11167;46.988;15.470;2024-02-28T08:02:27;8.80;76.10
22006;DHT22;11167;46.988;15.470;2024-02-28T08:04:28;8.80;76.20
22006;DHT22;11167;46.988;15.470;2024-02-28T08:06:31;8.80;76.10
22006;DHT22;11167;46.988;15.470;2024-02-28T08:08:35;8.80;76.10
22006;DHT22;11167;46.988;15.470;2024-02-28T08:10:37;8.80;77.00
22006;DHT22;11167;46.988;15.470;2024-02-28T08:12:39;8.80;76.10
22006;DHT22;11167;46.988;15.470;2024-02-28T08:14:40;8.80;76.20
22006;DHT22;11167;46.988;15.470;2024-02-28T08:16:41;8.80;76.20
22006;DHT22;11167;46.988;15.470;2024-02-28T08:18:42;8.80;76.20
22006;DHT22;11167;46.988;15.470;2024-02-28T08:20:44;8.80;76.10
22006;DHT22;11167;46.988;15.470;2024-02-28T08:22:45;8.80;76.10
22006;DHT22;11167;46.988;15.470;2024-02-28T08:24:47;8.80;76.10
22006;DHT22;11167;46.988;15.470;2024-02-28T08:26:48;8.80;76.30
22006;DHT22;11167;46.988;15.470;2024-02-28T08:28:49;8.80;76.20
22006;DHT22;11167;46.988;15.470;2024-02-28T08:30:50;8.80;76.20
22006;DHT22;11167;46.988;15.470;2024-02-28T08:32:51;8.80;76.30
22006;DHT22;11167;46.988;15.470;2024-02-28T08:34:53;8.80;76.20
22006;DHT22;11167;46.988;15.470;2024-02-28T08:36:55;8.80;76.20
22006;DHT22;11167;46.988;15.470;2024-02-28T08:38:56;8.80;76.20
22006;DHT22;11167;46.988;15.470;2024-02-28T08:40:57;8.80;76.20
22006;DHT22;11167;46.988;15.470;2024-02-28T08:42:59;8.80;76.30
22006;DHT22;11167;46.988;15.470;2024-02-28T08:45:00;8.90;76.40
22006;DHT22;11167;46.988;15.470;2024-02-28T08:47:01;8.80;76.30
22006;DHT22;11167;46.988;15.470;2024-02-28T08:49:02;8.80;76.30
22006;DHT22;11167;46.988;15.470;2024-02-28T08:51:04;8.80;76.30
22006;DHT22;11167;46.988;15.470;2024-02-28T08:53:05;8.80;76.30
22006;DHT22;11167;46.988;15.470;2024-02-28T08:55:06;8.80;76.40
22006;DHT22;11167;46.988;15.470;2024-02-28T08:57:08;8.90;76.40
22006;DHT22;11167;46.988;15.470;2024-02-28T08:59:09;8.90;76.40
22006;DHT22;11167;46.988;15.470;2024-02-28T09:01:13;8.80;76.50
22006;DHT22;11167;46.988;15.470;2024-02-28T09:03:16;8.90;76.40
22006;DHT22;11167;46.988;15.470;2024-02-28T09:05:17;8.80;76.40
22006;DHT22;11167;46.988;15.470;2024-02-28T09:07:19;8.80;76.50
22006;DHT22;11167;46.988;15.470;2024-02-28T09:09:20;8.90;77.00
22006;DHT22;11167;46.988;15.470;2024-02-28T09:11:21;8.90;76.50
22006;DHT22;11167;46.988;15.470;2024-02-28T09:13:22;8.90;76.50
22006;DHT22;11167;46.988;15.470;2024-02-28T09:15:24;8.90;76.50
22006;DHT22;11167;46.988;15.470;2024-02-28T09:17:26;8.90;76.50
22006;DHT22;11167;46.988;15.470;2024-02-28T09:19:27;8.90;76.50
22006;DHT22;11167;46.988;15.470;2024-02-28T09:21:28;8.90;76.50
22006;DHT22;11167;46.988;15.470;2024-02-28T09:23:30;8.90;76.50
22006;DHT22;11167;46.988;15.470;2024-02-28T09:25:31;8.90;76.50
22006;DHT22;11167;46.988;15.470;2024-02-28T09:27:33;8.90;76.50
22006;DHT22;11167;46.988;15.470;2024-02-28T09:29:34;8.90;76.50
22006;DHT22;11167;46.988;15.470;2024-02-28T09:31:36;8.90;76.50
22006;DHT22;11167;46.988;15.470;2024-02-28T09:33:37;8.90;76.50
22006;DHT22;11167;46.988;15.470;2024-02-28T09:35:38;8.90;76.50
22006;DHT22;11167;46.988;15.470;2024-02-28T09:37:40;9.00;76.70
22006;DHT22;11167;46.988;15.470;2024-02-28T09:39:41;9.00;76.60
22006;DHT22;11167;46.988;15.470;2024-02-28T09:41:42;8.90;76.60
22006;DHT22;11167;46.988;15.470;2024-02-28T09:43:45;9.00;76.70
22006;DHT22;11167;46.988;15.470;2024-02-28T09:45:47;9.00;76.90
22006;DHT22;11167;46.988;15.470;2024-02-28T09:47:48;9.00;76.80
22006;DHT22;11167;46.988;15.470;2024-02-28T09:49:51;9.00;76.80
22006;DHT22;11167;46.988;15.470;2024-02-28T09:51:53;9.00;76.90
22006;DHT22;11167;46.988;15.470;2024-02-28T09:53:54;9.00;77.00
22006;DHT22;11167;46.988;15.470;2024-02-28T09:55:55;9.10;77.20
22006;DHT22;11167;46.988;15.470;2024-02-28T09:57:58;9.00;77.10
22006;DHT22;11167;46.988;15.470;2024-02-28T10:00:00;9.10;77.40
22006;DHT22;11167;46.988;15.470;2024-02-28T10:02:02;9.10;77.40
22006;DHT22;11167;46.988;15.470;2024-02-28T10:04:04;9.10;77.40
22006;DHT22;11167;46.988;15.470;2024-02-28T10:06:06;9.10;77.50
22006;DHT22;11167;46.988;15.470;2024-02-28T10:08:07;9.20;77.70
22006;DHT22;11167;46.988;15.470;2024-02-28T10:10:10;9.20;77.60
22006;DHT22;11167;46.988;15.470;2024-02-28T10:12:12;9.20;77.80
22006;DHT22;11167;46.988;15.470;2024-02-28T10:14:19;9.20;77.20
22006;DHT22;11167;46.988;15.470;2024-02-28T10:16:21;9.20;77.90
22006;DHT22;11167;46.988;15.470;2024-02-28T10:18:22;9.30;78.10
22006;DHT22;11167;46.988;15.470;2024-02-28T10:20:23;9.20;78.00
22006;DHT22;11167;46.988;15.470;2024-02-28T10:22:25;9.30;78.20
22006;DHT22;11167;46.988;15.470;2024-02-28T10:24:26;9.30;78.20
22006;DHT22;11167;46.988;15.470;2024-02-28T10:26:27;9.30;78.30
22006;DHT22;11167;46.988;15.470;2024-02-28T10:28:30;9.40;78.40
22006;DHT22;11167;46.988;15.470;2024-02-28T10:30:31;9.40;78.50
22006;DHT22;11167;46.988;15.470;2024-02-28T10:32:33;9.40;78.50
22006;DHT22;11167;46.988;15.470;2024-02-28T10:34:38;9.40;78.50
22006;DHT22;11167;46.988;15.470;2024-02-28T10:36:39;9.50;78.70
22006;DHT22;11167;46.988;15.470;2024-02-28T10:38:41;9.50;78.70
22006;DHT22;11167;46.988;15.470;2024-02-28T10:40:42;9.50;78.80
22006;DHT22;11167;46.988;15.470;2024-02-28T10:42:44;9.50;79.50
22006;DHT22;11167;46.988;15.470;2024-02-28T10:44:47;9.60;79.00
22006;DHT22;11167;46.988;15.470;2024-02-28T10:46:51;9.60;79.00
22006;DHT22;11167;46.988;15.470;2024-02-28T10:48:53;9.60;79.20
22006;DHT22;11167;46.988;15.470;2024-02-28T10:51:18;9.60;79.20
22006;DHT22;11167;46.988;15.470;2024-02-28T10:53:22;9.70;79.30
22006;DHT22;11167;46.988;15.470;2024-02-28T10:55:31;9.70;79.40
22006;DHT22;11167;46.988;15.470;2024-02-28T10:57:32;9.70;79.30
22006;DHT22;11167;46.988;15.470;2024-02-28T10:59:35;9.70;79.40
22006;DHT22;11167;46.988;15.470;2024-02-28T11:01:40;9.70;79.40
22006;DHT22;11167;46.988;15.470;2024-02-28T11:03:46;9.80;79.60
22006;DHT22;11167;46.988;15.470;2024-02-28T11:05:47;9.80;79.60
22006;DHT22;11167;46.988;15.470;2024-02-28T11:07:51;9.80;79.60
22006;DHT22;11167;46.988;15.470;2024-02-28T11:09:54;9.90;79.80
22006;DHT22;11167;46.988;15.470;2024-02-28T11:11:56;9.90;79.70
22006;DHT22;11167;46.988;15.470;2024-02-28T11:13:58;9.90;79.80
22006;DHT22;11167;46.988;15.470;2024-02-28T11:16:10;10.00;79.80
22006;DHT22;11167;46.988;15.470;2024-02-28T11:18:11;10.00;79.80
22006;DHT22;11167;46.988;15.470;2024-02-28T11:20:14;10.00;79.80
22006;DHT22;11167;46.988;15.470;2024-02-28T11:22:18;10.00;79.90
22006;DHT22;11167;46.988;15.470;2024-02-28T11:24:24;10.00;79.90
22006;DHT22;11167;46.988;15.470;2024-02-28T11:26:26;10.10;80.00
22006;DHT22;11167;46.988;15.470;2024-02-28T11:28:28;10.10;80.00
22006;DHT22;11167;46.988;15.470;2024-02-28T11:30:29;10.10;80.00
22006;DHT22;11167;46.988;15.470;2024-02-28T11:32:31;10.20;80.80
22006;DHT22;11167;46.988;15.470;2024-02-28T11:34:34;10.20;80.90
22006;DHT22;11167;46.988;15.470;2024-02-28T11:36:35;10.20;80.10
22006;DHT22;11167;46.988;15.470;2024-02-28T11:38:39;10.30;80.30
22006;DHT22;11167;46.988;15.470;2024-02-28T11:40:49;10.30;80.30
22006;DHT22;11167;46.988;15.470;2024-02-28T11:42:52;10.30;80.30
22006;DHT22;11167;46.988;15.470;2024-02-28T11:44:54;10.30;80.30
22006;DHT22;11167;46.988;15.470;2024-02-28T11:46:59;10.30;80.30
22006;DHT22;11167;46.988;15.470;2024-02-28T11:49:01;10.40;80.50
22006;DHT22;11167;46.988;15.470;2024-02-28T11:51:02;10.40;80.40
22006;DHT22;11167;46.988;15.470;2024-02-28T11:53:04;10.40;80.50
22006;DHT22;11167;46.988;15.470;2024-02-28T11:55:06;10.50;80.60
22006;DHT22;11167;46.988;15.470;2024-02-28T11:57:11;10.50;80.60
22006;DHT22;11167;46.988;15.470;2024-02-28T11:59:14;10.60;80.50
22006;DHT22;11167;46.988;15.470;2024-02-28T12:01:15;10.60;80.60
22006;DHT22;11167;46.988;15.470;2024-02-28T12:03:22;10.60;80.60
22006;DHT22;11167;46.988;15.470;2024-02-28T12:05:23;10.60;80.70
22006;DHT22;11167;46.988;15.470;2024-02-28T12:07:24;10.60;80.60
22006;DHT22;11167;46.988;15.470;2024-02-28T12:09:26;10.70;80.70
22006;DHT22;11167;46.988;15.470;2024-02-28T12:11:32;10.70;80.80
22006;DHT22;11167;46.988;15.470;2024-02-28T12:13:33;10.70;80.60
22006;DHT22;11167;46.988;15.470;2024-02-28T12:15:35;10.70;80.70
22006;DHT22;11167;46.988;15.470;2024-02-28T12:17:37;10.80;80.80
22006;DHT22;11167;46.988;15.470;2024-02-28T12:19:39;10.80;80.80
22006;DHT22;11167;46.988;15.470;2024-02-28T12:21:40;10.80;80.80
22006;DHT22;11167;46.988;15.470;2024-02-28T12:23:42;10.90;80.80
22006;DHT22;11167;46.988;15.470;2024-02-28T12:25:43;10.90;81.00
22006;DHT22;11167;46.988;15.470;2024-02-28T12:27:44;10.90;80.90
22006;DHT22;11167;46.988;15.470;2024-02-28T12:29:45;10.90;81.00
22006;DHT22;11167;46.988;15.470;2024-02-28T12:31:46;11.00;81.00
22006;DHT22;11167;46.988;15.470;2024-02-28T12:33:48;11.10;81.20
22006;DHT22;11167;46.988;15.470;2024-02-28T12:35:49;11.00;81.10
22006;DHT22;11167;46.988;15.470;2024-02-28T12:37:50;11.10;81.20
22006;DHT22;11167;46.988;15.470;2024-02-28T12:39:51;11.10;81.20
22006;DHT22;11167;46.988;15.470;2024-02-28T12:41:53;11.20;81.20
22006;DHT22;11167;46.988;15.470;2024-02-28T12:43:55;11.20;81.30